Time;durP1;ratioP1;P1;durP2;ratioP2;P2;SDS_P1;SDS_P2;PMS_P1;PMS_P2;Temp;Humidity;BMP_temperature;BMP_pressure;BME280_temperature;BME280_humidity;BME280_pressure;Samples;Min_cycle;Max_cycle;Signal;HPM_P1;HPM_P2
2023/12/31 00:02:15;;;;;;;7.13;6.45;;;5.50;99.90;;;;;;5084715;28;20210;-75
2023/12/31 00:04:42;;;;;;;7.82;7.05;;;5.50;99.90;;;;;;5082215;28;20205;-74
2023/12/31 00:07:09;;;;;;;7.55;6.85;;;5.50;99.90;;;;;;5082891;28;20672;-74
2023/12/31 00:09:37;;;;;;;6.93;6.32;;;5.50;99.90;;;;;;5083574;28;20229;-75
2023/12/31 00:12:04;;;;;;;7.43;6.72;;;5.50;99.90;;;;;;5085108;28;20249;-74
2023/12/31 00:14:31;;;;;;;6.93;6.22;;;5.50;99.90;;;;;;5082593;28;20859;-73
2023/12/31 00:17:00;;;;;;;7.60;6.90;;;5.50;99.90;;;;;;5084072;28;20217;-74
2023/12/31 00:19:27;;;;;;;6.50;5.90;;;5.40;99.90;;;;;;5082939;28;20245;-75
2023/12/31 00:21:54;;;;;;;7.10;6.47;;;5.40;99.90;;;;;;5081926;28;20221;-75
2023/12/31 00:24:21;;;;;;;7.95;7.25;;;5.40;99.90;;;;;;5082253;28;20212;-74
2023/12/31 00:26:48;;;;;;;8.07;7.38;;;5.40;99.90;;;;;;5076252;28;20701;-75
2023/12/31 00:29:15;;;;;;;6.68;6.05;;;5.40;99.90;;;;;;5063975;28;20271;-75
2023/12/31 00:31:42;;;;;;;7.13;6.53;;;5.40;99.90;;;;;;5062895;28;20646;-74
2023/12/31 00:34:11;;;;;;;6.40;5.90;;;5.40;99.90;;;;;;5061674;28;20206;-74
2023/12/31 00:36:38;;;;;;;7.10;6.50;;;5.40;99.90;;;;;;5066759;28;20232;-74
2023/12/31 00:39:05;;;;;;;6.32;5.82;;;5.50;99.90;;;;;;5080243;28;20669;-74
2023/12/31 00:41:33;;;;;;;7.15;6.45;;;5.50;99.90;;;;;;5078905;28;20241;-73
2023/12/31 00:44:00;;;;;;;7.85;7.10;;;5.50;99.90;;;;;;5062749;28;20198;-76
2023/12/31 00:46:27;;;;;;;6.80;6.20;;;5.50;99.90;;;;;;5062105;28;20217;-75
2023/12/31 00:48:54;;;;;;;6.80;6.20;;;5.50;99.90;;;;;;5067112;28;20244;-75
2023/12/31 00:51:22;;;;;;;6.50;5.90;;;5.50;99.90;;;;;;5061114;28;20217;-75
2023/12/31 00:53:49;;;;;;;6.22;5.68;;;5.50;99.90;;;;;;5059752;28;20222;-74
2023/12/31 00:56:16;;;;;;;6.53;5.95;;;5.50;99.90;;;;;;5065505;28;20202;-74
2023/12/31 00:58:43;;;;;;;6.72;6.13;;;5.50;99.90;;;;;;5061316;28;20217;-71
2023/12/31 01:01:10;;;;;;;6.70;6.10;;;5.50;99.90;;;;;;5061926;28;20226;-73
2023/12/31 01:03:37;;;;;;;6.78;6.15;;;5.50;99.90;;;;;;5061271;28;20218;-75
2023/12/31 01:06:06;;;;;;;6.07;5.68;;;5.50;99.90;;;;;;5063343;28;20198;-74
2023/12/31 01:08:34;;;;;;;6.03;5.53;;;5.50;99.90;;;;;;5082299;28;20245;-74
2023/12/31 01:11:02;;;;;;;6.20;5.60;;;5.50;99.90;;;;;;5083649;28;20227;-73
2023/12/31 01:13:30;;;;;;;7.07;6.47;;;5.50;99.90;;;;;;5061080;28;20226;-74
2023/12/31 01:15:57;;;;;;;7.40;6.80;;;5.50;99.90;;;;;;5062568;28;20207;-74
2023/12/31 01:18:24;;;;;;;5.88;5.38;;;5.50;99.90;;;;;;5064241;28;20217;-76
2023/12/31 01:20:51;;;;;;;6.13;5.63;;;5.40;99.90;;;;;;5066308;28;20655;-74
2023/12/31 01:23:18;;;;;;;6.68;6.18;;;5.40;99.90;;;;;;5079601;28;20225;-74
2023/12/31 01:25:47;;;;;;;6.68;6.07;;;5.40;99.90;;;;;;5083431;28;20209;-74
2023/12/31 01:28:14;;;;;;;6.18;5.68;;;5.40;99.90;;;;;;5080891;28;20704;-74
2023/12/31 01:30:41;;;;;;;6.63;6.03;;;5.40;99.90;;;;;;5080800;28;20824;-75
2023/12/31 01:33:08;;;;;;;6.70;6.05;;;5.40;99.90;;;;;;5082873;28;20228;-73
2023/12/31 01:35:35;;;;;;;6.63;6.03;;;5.40;99.90;;;;;;5084011;28;20220;-74
2023/12/31 01:38:02;;;;;;;6.82;6.25;;;5.40;99.90;;;;;;5080064;28;20233;-75
2023/12/31 01:40:29;;;;;;;6.78;6.28;;;5.40;99.90;;;;;;5081046;28;20228;-75
2023/12/31 01:42:58;;;;;;;6.30;5.70;;;5.40;99.90;;;;;;5081920;28;20612;-76
2023/12/31 01:45:25;;;;;;;7.07;6.47;;;5.30;99.90;;;;;;5083941;28;20205;-77
2023/12/31 01:47:53;;;;;;;7.05;6.38;;;5.30;99.90;;;;;;5080324;28;20609;-75
2023/12/31 01:50:23;;;;;;;6.78;6.18;;;5.30;99.90;;;;;;5080501;28;20222;-75
2023/12/31 01:52:51;;;;;;;6.72;6.18;;;5.20;99.90;;;;;;5081837;28;20221;-75
2023/12/31 01:55:19;;;;;;;5.97;5.47;;;5.20;99.90;;;;;;5083324;28;20209;-75
2023/12/31 01:57:46;;;;;;;7.00;6.35;;;5.20;99.90;;;;;;5082624;28;20225;-74
2023/12/31 02:00:15;;;;;;;6.72;6.20;;;5.20;99.90;;;;;;5081832;28;20598;-76
2023/12/31 02:02:44;;;;;;;6.78;6.28;;;5.20;99.90;;;;;;5080607;28;20232;-74
2023/12/31 02:05:11;;;;;;;6.60;6.10;;;5.20;99.90;;;;;;5083760;28;20207;-75
2023/12/31 02:07:38;;;;;;;5.70;5.30;;;5.10;99.90;;;;;;5082755;28;20218;-75
2023/12/31 02:10:06;;;;;;;6.88;6.28;;;5.10;99.90;;;;;;5080053;28;20622;-75
2023/12/31 02:12:33;;;;;;;6.93;6.35;;;5.10;99.90;;;;;;5080738;28;20232;-76
2023/12/31 02:15:00;;;;;;;6.15;5.65;;;5.10;99.90;;;;;;5082518;28;20205;-74
2023/12/31 02:17:28;;;;;;;6.85;6.13;;;5.10;99.90;;;;;;5081731;28;20221;-76
2023/12/31 02:19:55;;;;;;;5.88;5.43;;;5.10;99.90;;;;;;5082929;28;20240;-75
2023/12/31 02:22:23;;;;;;;6.40;5.82;;;5.10;99.90;;;;;;5081068;28;20221;-75
2023/12/31 02:24:52;;;;;;;6.35;5.75;;;5.10;99.90;;;;;;5082197;28;20202;-75
2023/12/31 02:27:21;;;;;;;5.80;5.40;;;5.00;99.90;;;;;;5082221;28;20221;-77
2023/12/31 02:29:48;;;;;;;5.95;5.50;;;5.10;99.90;;;;;;5082659;28;20228;-77
2023/12/31 02:32:16;;;;;;;6.18;5.68;;;5.10;99.90;;;;;;5082937;28;20236;-75
2023/12/31 02:34:45;;;;;;;6.65;6.15;;;5.10;99.90;;;;;;5081978;28;20206;-75
2023/12/31 02:37:12;;;;;;;6.93;6.32;;;5.10;99.90;;;;;;5079158;28;20659;-78
2023/12/31 02:39:39;;;;;;;6.38;5.82;;;5.00;99.90;;;;;;5079638;28;20229;-74
2023/12/31 02:42:06;;;;;;;6.60;6.00;;;5.00;99.90;;;;;;5079885;28;20585;-76
2023/12/31 02:44:35;;;;;;;6.80;6.20;;;4.90;99.90;;;;;;5078904;28;20204;-75
2023/12/31 02:47:02;;;;;;;7.72;7.03;;;4.90;99.90;;;;;;5082521;28;20641;-75
2023/12/31 02:49:29;;;;;;;7.35;6.65;;;4.80;99.90;;;;;;5079871;28;20210;-75
2023/12/31 02:51:56;;;;;;;6.85;6.25;;;4.80;99.90;;;;;;5080858;28;20313;-74
2023/12/31 02:54:23;;;;;;;6.72;6.13;;;4.80;99.90;;;;;;5081670;28;20201;-76
2023/12/31 02:56:50;;;;;;;6.53;5.95;;;4.70;99.90;;;;;;5082731;28;20933;-76
2023/12/31 02:59:17;;;;;;;7.03;6.40;;;4.70;99.90;;;;;;5082744;28;20226;-77
2023/12/31 03:01:45;;;;;;;6.13;5.60;;;4.70;99.90;;;;;;5080785;28;20250;-75
2023/12/31 03:04:12;;;;;;;6.65;6.15;;;4.70;99.90;;;;;;5080041;28;20208;-74
2023/12/31 03:06:39;;;;;;;6.93;6.25;;;4.70;99.90;;;;;;5079194;28;20226;-75
2023/12/31 03:09:07;;;;;;;6.55;5.95;;;4.60;99.90;;;;;;5081776;28;20251;-74
2023/12/31 03:11:34;;;;;;;6.15;5.65;;;4.60;99.90;;;;;;5079756;28;20229;-74
2023/12/31 03:14:01;;;;;;;6.40;5.75;;;4.60;99.90;;;;;;5080914;28;21114;-76
2023/12/31 03:16:29;;;;;;;7.20;6.50;;;4.60;99.90;;;;;;5080483;28;20200;-75
2023/12/31 03:18:57;;;;;;;6.75;6.13;;;4.60;99.90;;;;;;5080916;28;20232;-77
2023/12/31 03:21:24;;;;;;;6.88;6.28;;;4.60;99.90;;;;;;5078593;28;20672;-74
2023/12/31 03:23:51;;;;;;;7.05;6.45;;;4.60;99.90;;;;;;5080607;28;20198;-75
2023/12/31 03:26:18;;;;;;;7.85;7.15;;;4.60;99.90;;;;;;5081262;28;20205;-75
2023/12/31 03:28:46;;;;;;;7.25;6.60;;;4.50;99.90;;;;;;5081977;28;20225;-74
2023/12/31 03:31:13;;;;;;;7.10;6.50;;;4.50;99.90;;;;;;5079564;28;20214;-73
2023/12/31 03:33:40;;;;;;;6.95;6.38;;;4.50;99.90;;;;;;5080109;28;20201;-74
2023/12/31 03:36:09;;;;;;;7.32;6.63;;;4.40;99.90;;;;;;5080990;28;20208;-78
2023/12/31 03:38:36;;;;;;;7.35;6.75;;;4.40;99.90;;;;;;5078515;28;20233;-74
2023/12/31 03:41:03;;;;;;;7.22;6.63;;;4.40;99.90;;;;;;5080423;28;20213;-76
2023/12/31 03:43:30;;;;;;;6.45;5.95;;;4.30;99.90;;;;;;5077552;28;20225;-75
2023/12/31 03:45:59;;;;;;;6.75;6.25;;;4.30;99.90;;;;;;5080910;28;20608;-75
2023/12/31 03:48:26;;;;;;;6.32;5.85;;;4.30;99.90;;;;;;5080876;28;20217;-77
2023/12/31 03:50:53;;;;;;;7.00;6.28;;;4.30;99.90;;;;;;5076845;28;20206;-75
2023/12/31 03:53:21;;;;;;;6.65;6.05;;;4.30;99.90;;;;;;5079391;28;20228;-75
2023/12/31 03:55:48;;;;;;;7.57;6.93;;;4.20;99.90;;;;;;5080681;28;20198;-75
2023/12/31 03:58:16;;;;;;;7.22;6.63;;;4.20;99.90;;;;;;5080823;28;20221;-75
2023/12/31 04:00:43;;;;;;;6.63;6.13;;;4.30;99.90;;;;;;5078434;28;20193;-75
2023/12/31 04:03:10;;;;;;;6.68;6.18;;;4.30;99.90;;;;;;5078258;28;20213;-75
2023/12/31 04:05:38;;;;;;;6.80;6.30;;;4.20;99.90;;;;;;5080857;28;20201;-76
2023/12/31 04:08:06;;;;;;;6.85;6.28;;;4.20;99.90;;;;;;5080766;28;20229;-75
2023/12/31 04:10:34;;;;;;;6.40;5.90;;;4.20;99.90;;;;;;5080473;28;20223;-74
2023/12/31 04:13:02;;;;;;;6.57;6.05;;;4.20;99.90;;;;;;5078687;28;20252;-76
2023/12/31 04:15:29;;;;;;;6.82;6.22;;;4.20;99.90;;;;;;5082332;28;20198;-74
2023/12/31 04:17:56;;;;;;;6.88;6.28;;;4.30;99.90;;;;;;5085571;28;20217;-74
2023/12/31 04:20:23;;;;;;;7.00;6.50;;;4.30;99.90;;;;;;5087645;28;20241;-75
2023/12/31 04:22:50;;;;;;;7.22;6.63;;;4.30;99.90;;;;;;5085009;28;20221;-76
2023/12/31 04:25:17;;;;;;;7.35;6.75;;;4.30;99.90;;;;;;5095283;28;20210;-75
2023/12/31 04:27:46;;;;;;;7.30;6.68;;;4.30;99.90;;;;;;5091153;28;20213;-74
2023/12/31 04:30:13;;;;;;;7.60;7.00;;;4.40;99.90;;;;;;5088257;28;20225;-76
2023/12/31 04:32:40;;;;;;;7.28;6.68;;;4.40;99.90;;;;;;5083196;28;20240;-74
2023/12/31 04:35:08;;;;;;;7.70;7.00;;;4.40;99.90;;;;;;5082322;28;20297;-76
2023/12/31 04:37:35;;;;;;;7.20;6.60;;;4.40;99.90;;;;;;5083106;28;20482;-74
2023/12/31 04:40:03;;;;;;;6.47;5.97;;;4.50;99.90;;;;;;5085442;28;20252;-76
2023/12/31 04:42:30;;;;;;;7.07;6.47;;;4.50;99.90;;;;;;5083585;28;20253;-75
2023/12/31 04:45:04;;;;;;;7.25;6.65;;;4.50;99.90;;;;;;5084544;28;20210;-75
2023/12/31 04:47:31;;;;;;;6.45;5.85;;;4.50;99.90;;;;;;5080630;28;20217;-76
2023/12/31 04:49:58;;;;;;;6.72;6.18;;;4.50;99.90;;;;;;5082944;28;20224;-77
2023/12/31 04:52:25;;;;;;;6.40;5.90;;;4.50;99.90;;;;;;5083845;28;20241;-74
2023/12/31 04:54:52;;;;;;;6.63;6.13;;;4.50;99.90;;;;;;5082309;28;20193;-75
2023/12/31 04:57:20;;;;;;;6.75;6.22;;;4.40;99.90;;;;;;5082633;28;20261;-76
2023/12/31 04:59:47;;;;;;;7.53;6.93;;;4.40;99.90;;;;;;5080931;28;20726;-75
2023/12/31 05:02:15;;;;;;;6.85;6.35;;;4.40;99.90;;;;;;5080461;28;20222;-75
2023/12/31 05:04:42;;;;;;;6.30;5.80;;;4.40;99.90;;;;;;5081114;28;20336;-77
2023/12/31 05:07:10;;;;;;;7.15;6.60;;;4.40;99.90;;;;;;5080967;28;20221;-75
2023/12/31 05:09:38;;;;;;;6.22;5.72;;;4.40;99.90;;;;;;5079226;28;20221;-77
2023/12/31 05:12:06;;;;;;;6.45;5.95;;;4.40;99.90;;;;;;5081686;28;20221;-75
2023/12/31 05:14:33;;;;;;;6.40;5.90;;;4.40;99.90;;;;;;5080305;28;20625;-77
2023/12/31 05:17:00;;;;;;;5.90;5.45;;;4.40;99.90;;;;;;5077326;28;20220;-76
2023/12/31 05:19:28;;;;;;;5.85;5.45;;;4.40;99.90;;;;;;5080029;28;21133;-75
2023/12/31 05:21:55;;;;;;;5.82;5.40;;;4.40;99.90;;;;;;5080081;28;20221;-74
2023/12/31 05:24:22;;;;;;;6.68;6.18;;;4.40;99.90;;;;;;5081733;28;20205;-75
2023/12/31 05:26:49;;;;;;;6.68;6.07;;;4.40;99.90;;;;;;5081233;28;20240;-75
2023/12/31 05:29:16;;;;;;;6.00;5.50;;;4.40;99.90;;;;;;5080995;28;20229;-74
2023/12/31 05:31:44;;;;;;;6.00;5.50;;;4.50;99.90;;;;;;5081695;28;20228;-75
2023/12/31 05:34:11;;;;;;;5.75;5.35;;;4.40;99.90;;;;;;5082496;28;20206;-75
2023/12/31 05:36:40;;;;;;;6.45;5.95;;;4.40;99.90;;;;;;5080341;28;20221;-74
2023/12/31 05:39:08;;;;;;;6.38;5.88;;;4.40;99.90;;;;;;5082867;28;20248;-79
2023/12/31 05:41:36;;;;;;;6.40;5.85;;;4.40;99.90;;;;;;5081096;28;20229;-75
2023/12/31 05:44:04;;;;;;;6.15;5.65;;;4.40;99.90;;;;;;5082349;28;20301;-74
2023/12/31 05:46:31;;;;;;;6.15;5.65;;;4.30;99.90;;;;;;5080028;28;20198;-76
2023/12/31 05:48:58;;;;;;;6.80;6.20;;;4.30;99.90;;;;;;5082334;28;20244;-76
2023/12/31 05:51:25;;;;;;;6.20;5.80;;;4.30;99.90;;;;;;5081531;28;20718;-74
2023/12/31 05:53:53;;;;;;;6.07;5.57;;;4.30;99.90;;;;;;5079967;28;20214;-76
2023/12/31 05:56:20;;;;;;;5.68;5.28;;;4.40;99.90;;;;;;5081264;28;20201;-76
2023/12/31 05:58:48;;;;;;;5.80;5.38;;;4.40;99.90;;;;;;5079643;28;20826;-74
2023/12/31 06:01:16;;;;;;;5.80;5.30;;;4.50;99.90;;;;;;5079956;28;20711;-75
2023/12/31 06:03:43;;;;;;;6.32;5.72;;;4.50;99.90;;;;;;5080409;28;20201;-76
2023/12/31 06:06:10;;;;;;;6.07;5.57;;;4.50;99.90;;;;;;5081114;28;20209;-76
2023/12/31 06:08:37;;;;;;;6.18;5.63;;;4.50;99.90;;;;;;5080127;28;20225;-76
2023/12/31 06:11:06;;;;;;;6.07;5.57;;;4.60;99.90;;;;;;5080772;28;20915;-75
2023/12/31 06:13:33;;;;;;;5.75;5.35;;;4.60;99.90;;;;;;5079374;28;20661;-75
2023/12/31 06:16:01;;;;;;;6.30;5.70;;;4.60;99.90;;;;;;5080620;28;20258;-75
2023/12/31 06:18:28;;;;;;;6.13;5.72;;;4.60;99.90;;;;;;5077281;28;20217;-75
2023/12/31 06:20:55;;;;;;;5.95;5.45;;;4.60;99.90;;;;;;5080730;28;20208;-73
2023/12/31 06:23:22;;;;;;;6.63;6.13;;;4.60;99.90;;;;;;5081350;28;20239;-77
2023/12/31 06:25:49;;;;;;;6.28;5.78;;;4.60;99.90;;;;;;5080005;28;20205;-74
2023/12/31 06:28:17;;;;;;;6.05;5.55;;;4.60;99.90;;;;;;5079941;28;20225;-74
2023/12/31 06:30:44;;;;;;;6.05;5.55;;;4.50;99.90;;;;;;5080222;28;20572;-75
2023/12/31 06:33:11;;;;;;;6.35;5.85;;;4.50;99.90;;;;;;5080026;28;20237;-75
2023/12/31 06:35:38;;;;;;;5.70;5.30;;;4.40;99.90;;;;;;5081705;28;20205;-75
2023/12/31 06:38:06;;;;;;;6.60;6.00;;;4.40;99.90;;;;;;5080565;28;20225;-74
2023/12/31 06:40:33;;;;;;;5.97;5.55;;;4.30;99.90;;;;;;5082712;28;20301;-75
2023/12/31 06:43:00;;;;;;;6.30;5.80;;;4.30;99.90;;;;;;5079880;28;20242;-75
2023/12/31 06:45:28;;;;;;;5.88;5.38;;;4.30;99.90;;;;;;5081503;28;20204;-74
2023/12/31 06:47:55;;;;;;;6.80;6.20;;;4.30;99.90;;;;;;5080271;28;20648;-75
2023/12/31 06:50:22;;;;;;;5.40;5.00;;;4.40;99.90;;;;;;5082437;28;20274;-74
2023/12/31 06:52:49;;;;;;;6.50;6.00;;;4.50;99.90;;;;;;5079734;28;20718;-75
2023/12/31 06:55:16;;;;;;;6.28;5.78;;;4.50;99.90;;;;;;5082470;28;20660;-75
2023/12/31 06:57:44;;;;;;;6.13;5.68;;;4.60;99.90;;;;;;5079024;28;20244;-77
2023/12/31 07:00:11;;;;;;;6.60;6.05;;;4.50;99.90;;;;;;5081528;28;20229;-75
2023/12/31 07:02:40;;;;;;;7.00;6.40;;;4.50;99.90;;;;;;5081574;28;20213;-76
2023/12/31 07:05:08;;;;;;;6.45;5.95;;;4.40;99.90;;;;;;5079865;28;20628;-73
2023/12/31 07:07:35;;;;;;;6.22;5.72;;;4.40;99.90;;;;;;5076616;28;20220;-74
2023/12/31 07:10:03;;;;;;;6.28;5.78;;;4.40;99.90;;;;;;5081458;28;20224;-76
2023/12/31 07:12:30;;;;;;;6.28;5.80;;;4.40;99.90;;;;;;5080872;28;20695;-76
2023/12/31 07:14:57;;;;;;;6.45;5.85;;;4.40;99.90;;;;;;5081142;28;20202;-75
2023/12/31 07:17:24;;;;;;;6.30;5.80;;;4.50;99.90;;;;;;5081000;28;20221;-77
2023/12/31 07:19:53;;;;;;;6.18;5.40;;;4.50;99.90;;;;;;5080253;28;20279;-73
2023/12/31 07:22:20;;;;;;;6.38;5.88;;;4.50;99.90;;;;;;5081068;28;20213;-76
2023/12/31 07:24:47;;;;;;;6.28;5.78;;;4.50;99.90;;;;;;5080900;28;20209;-74
2023/12/31 07:27:14;;;;;;;6.30;5.60;;;4.50;99.90;;;;;;5069156;28;20594;-75
2023/12/31 07:29:41;;;;;;;6.55;5.97;;;4.50;99.90;;;;;;5064221;28;20225;-75
2023/12/31 07:32:08;;;;;;;6.72;6.13;;;4.60;99.90;;;;;;5062410;28;20699;-75
2023/12/31 07:34:35;;;;;;;6.22;5.72;;;4.50;99.90;;;;;;5062693;28;20218;-75
2023/12/31 07:37:04;;;;;;;5.68;5.28;;;4.60;99.90;;;;;;5062846;28;20582;-75
2023/12/31 07:39:32;;;;;;;6.35;5.75;;;4.50;99.90;;;;;;5062834;28;20222;-75
2023/12/31 07:41:59;;;;;;;6.32;5.82;;;4.60;99.90;;;;;;5068537;28;20711;-74
2023/12/31 07:44:26;;;;;;;5.78;5.38;;;4.60;99.90;;;;;;5086348;28;20504;-77
2023/12/31 07:46:53;;;;;;;6.35;5.75;;;4.60;99.90;;;;;;5078599;28;20229;-74
2023/12/31 07:49:20;;;;;;;6.47;5.97;;;4.60;99.90;;;;;;5067144;28;20225;-76
2023/12/31 07:51:48;;;;;;;6.55;6.05;;;4.60;99.90;;;;;;5064860;28;20226;-76
2023/12/31 07:54:16;;;;;;;6.47;5.97;;;4.70;99.90;;;;;;5061428;28;20225;-74
2023/12/31 07:56:44;;;;;;;6.70;6.20;;;4.70;99.90;;;;;;5063888;28;20225;-74
2023/12/31 07:59:11;;;;;;;7.65;6.95;;;4.70;99.90;;;;;;5064785;28;20241;-74
2023/12/31 08:01:38;;;;;;;7.28;6.68;;;4.60;99.90;;;;;;5066000;28;20289;-74
2023/12/31 08:04:05;;;;;;;7.03;6.50;;;4.60;99.90;;;;;;5083913;28;20213;-75
2023/12/31 08:06:32;;;;;;;7.80;7.10;;;4.60;99.90;;;;;;5084737;28;20209;-77
2023/12/31 08:08:59;;;;;;;8.23;7.53;;;4.60;99.90;;;;;;5084815;28;20790;-74
2023/12/31 08:11:28;;;;;;;7.88;7.18;;;4.70;99.90;;;;;;5085924;28;20690;-74
2023/12/31 08:13:55;;;;;;;7.05;6.50;;;4.70;99.90;;;;;;5086193;28;20224;-78
2023/12/31 08:16:22;;;;;;;7.50;6.90;;;4.70;99.90;;;;;;5084724;28;20682;-77
2023/12/31 08:18:49;;;;;;;7.72;7.03;;;4.60;99.90;;;;;;5085608;28;20646;-75
2023/12/31 08:21:16;;;;;;;6.88;6.28;;;4.50;99.90;;;;;;5081433;28;20198;-74
2023/12/31 08:23:43;;;;;;;7.68;6.97;;;4.50;99.90;;;;;;5085608;28;20193;-76
2023/12/31 08:26:13;;;;;;;7.35;6.75;;;4.50;99.90;;;;;;5083973;28;20212;-74
2023/12/31 08:28:41;;;;;;;7.75;7.05;;;4.50;99.90;;;;;;5084517;28;20225;-75
2023/12/31 08:31:13;;;;;;;8.38;7.68;;;4.40;99.90;;;;;;5082745;28;20197;-74
2023/12/31 08:33:40;;;;;;;7.85;7.25;;;4.40;99.90;;;;;;5070700;28;20221;-75
2023/12/31 08:36:08;;;;;;;6.78;6.28;;;4.30;99.90;;;;;;5066338;28;20202;-77
2023/12/31 08:38:35;;;;;;;7.22;6.63;;;4.40;99.90;;;;;;5067876;28;20222;-75
2023/12/31 08:41:02;;;;;;;6.20;5.72;;;4.40;99.90;;;;;;5066841;28;21223;-75
2023/12/31 08:43:29;;;;;;;6.90;6.30;;;4.50;99.90;;;;;;5069348;28;20205;-74
2023/12/31 08:45:57;;;;;;;6.57;6.07;;;4.50;99.90;;;;;;5067387;28;20190;-73
2023/12/31 08:48:24;;;;;;;7.18;6.57;;;4.50;99.90;;;;;;5066160;28;20222;-75
2023/12/31 08:50:51;;;;;;;6.55;6.05;;;4.60;99.90;;;;;;5070413;28;20205;-75
2023/12/31 08:53:19;;;;;;;5.80;5.40;;;4.60;99.90;;;;;;5068150;28;20754;-75
2023/12/31 08:55:47;;;;;;;5.90;5.50;;;4.70;99.90;;;;;;5062932;28;20210;-76
2023/12/31 08:58:14;;;;;;;6.25;5.75;;;4.80;99.90;;;;;;5064126;28;20233;-75
2023/12/31 09:00:42;;;;;;;6.65;6.07;;;4.90;99.90;;;;;;5068147;28;20198;-75
2023/12/31 09:03:10;;;;;;;7.20;6.60;;;5.00;99.90;;;;;;5065968;28;20661;-75
2023/12/31 09:05:37;;;;;;;7.57;6.97;;;5.50;99.90;;;;;;5071384;28;20202;-76
2023/12/31 09:08:05;;;;;;;7.10;6.28;;;5.50;99.90;;;;;;5080485;28;20696;-77
2023/12/31 09:10:32;;;;;;;7.00;6.40;;;5.40;99.90;;;;;;5085674;28;20566;-73
2023/12/31 09:13:00;;;;;;;7.20;6.60;;;5.20;99.90;;;;;;5073984;28;20214;-78
2023/12/31 09:15:28;;;;;;;8.02;7.32;;;5.10;99.90;;;;;;5064118;28;20236;-75
2023/12/31 09:17:55;;;;;;;8.07;7.38;;;5.00;99.90;;;;;;5065705;28;20221;-75
2023/12/31 09:20:24;;;;;;;7.75;7.15;;;4.90;99.90;;;;;;5069336;28;20218;-74
2023/12/31 09:22:53;;;;;;;8.50;7.80;;;4.80;99.90;;;;;;5066712;28;20221;-76
2023/12/31 09:25:20;;;;;;;7.95;7.25;;;4.70;99.90;;;;;;5071484;28;20277;-76
2023/12/31 09:27:47;;;;;;;7.70;7.10;;;4.70;99.90;;;;;;5067658;28;20726;-76
2023/12/31 09:30:14;;;;;;;8.60;7.72;;;4.80;99.90;;;;;;5069887;28;20589;-76
2023/12/31 09:32:42;;;;;;;8.68;7.88;;;4.90;99.90;;;;;;5069054;28;20218;-77
2023/12/31 09:35:10;;;;;;;8.93;8.13;;;4.90;99.90;;;;;;5070329;28;20320;-76
2023/12/31 09:37:38;;;;;;;8.80;8.07;;;4.90;99.90;;;;;;5072584;28;20727;-78
2023/12/31 09:40:06;;;;;;;9.77;8.88;;;5.00;99.90;;;;;;5073608;28;20214;-78
2023/12/31 09:42:46;;;;;;;9.90;9.05;;;4.90;99.90;;;;;;5067955;28;20246;-76
2023/12/31 09:45:15;;;;;;;9.57;8.68;;;4.90;99.90;;;;;;5066502;28;20228;-77
2023/12/31 09:47:43;;;;;;;7.78;7.13;;;4.80;99.90;;;;;;5071784;28;20210;-74
2023/12/31 09:50:12;;;;;;;8.27;7.57;;;4.90;99.90;;;;;;5066563;28;20305;-74
2023/12/31 09:52:43;;;;;;;9.07;8.38;;;4.90;99.90;;;;;;5068336;28;20224;-75
2023/12/31 09:55:10;;;;;;;9.13;8.32;;;4.90;99.90;;;;;;5061250;28;20222;-77
2023/12/31 09:57:39;;;;;;;8.77;7.97;;;4.90;99.90;;;;;;5063927;28;20210;-76
2023/12/31 10:00:08;;;;;;;9.80;8.90;;;4.90;99.90;;;;;;5066996;28;20674;-73
2023/12/31 10:02:35;;;;;;;9.65;8.75;;;4.90;99.90;;;;;;5085337;28;20220;-74
2023/12/31 10:05:04;;;;;;;9.25;8.35;;;4.80;99.90;;;;;;5089095;28;20288;-76
2023/12/31 10:07:32;;;;;;;9.77;8.98;;;4.80;99.90;;;;;;5071901;28;20553;-73
2023/12/31 10:10:02;;;;;;;10.30;9.30;;;4.80;99.90;;;;;;5065477;28;20214;-76
2023/12/31 10:12:30;;;;;;;9.43;8.63;;;4.90;99.90;;;;;;5073623;28;20560;-74
2023/12/31 10:14:57;;;;;;;9.85;8.88;;;4.90;99.90;;;;;;5085844;28;20679;-76
2023/12/31 10:17:25;;;;;;;10.25;9.15;;;4.80;99.90;;;;;;5078438;28;20217;-76
2023/12/31 10:19:52;;;;;;;10.23;9.23;;;4.90;99.90;;;;;;5069365;28;20293;-76
2023/12/31 10:22:19;;;;;;;8.57;7.78;;;4.80;99.90;;;;;;5064083;28;20229;-73
2023/12/31 10:24:46;;;;;;;8.90;8.10;;;4.80;99.90;;;;;;5067780;28;20680;-77
2023/12/31 10:27:15;;;;;;;9.48;8.57;;;4.80;99.90;;;;;;5064012;28;20226;-76
2023/12/31 10:29:44;;;;;;;9.18;8.27;;;4.80;99.90;;;;;;5065969;28;20856;-76
2023/12/31 10:32:11;;;;;;;15.55;8.75;;;4.70;99.90;;;;;;5065325;28;20767;-73
2023/12/31 10:34:40;;;;;;;8.30;7.55;;;4.70;99.90;;;;;;5063071;28;20221;-75
2023/12/31 10:37:07;;;;;;;9.70;8.75;;;4.70;99.90;;;;;;5068040;28;20206;-75
2023/12/31 10:39:36;;;;;;;9.05;8.15;;;4.60;99.90;;;;;;5068359;28;20222;-75
2023/12/31 10:42:04;;;;;;;8.57;7.75;;;4.70;99.90;;;;;;5072395;28;20245;-77
2023/12/31 10:44:35;;;;;;;8.73;7.93;;;4.70;99.90;;;;;;5086048;28;20189;-78
2023/12/31 10:47:09;;;;;;;9.07;8.27;;;4.80;99.90;;;;;;5087304;28;20228;-73
2023/12/31 10:49:39;;;;;;;8.02;7.32;;;4.70;99.90;;;;;;5086939;28;20228;-74
2023/12/31 10:52:07;;;;;;;8.30;7.55;;;4.70;99.90;;;;;;5087361;28;20221;-76
2023/12/31 10:54:42;;;;;;;7.50;6.90;;;4.70;99.90;;;;;;5083640;28;20223;-73
2023/12/31 10:57:12;;;;;;;8.70;7.93;;;4.70;99.90;;;;;;5077544;28;20787;-75
2023/12/31 10:59:42;;;;;;;8.70;7.90;;;4.80;99.90;;;;;;5067170;28;20723;-74
2023/12/31 11:02:15;;;;;;;8.23;7.57;;;4.90;99.90;;;;;;5068922;28;20225;-77
2023/12/31 11:04:45;;;;;;;8.43;7.72;;;4.90;99.90;;;;;;5085261;28;20796;-80
2023/12/31 11:07:14;;;;;;;8.30;7.60;;;4.90;99.90;;;;;;5076914;28;20256;-76
2023/12/31 11:09:42;;;;;;;8.32;7.63;;;5.00;99.90;;;;;;5064666;28;20229;-73
2023/12/31 11:12:09;;;;;;;8.40;7.70;;;4.90;99.90;;;;;;5063720;28;20237;-74
2023/12/31 11:14:39;;;;;;;8.88;8.18;;;4.90;99.90;;;;;;5064317;28;20211;-74
2023/12/31 11:17:31;;;;;;;8.25;7.05;;;4.90;99.90;;;;;;5065375;28;20602;-76
2023/12/31 11:20:27;;;;;;;8.77;7.97;;;4.90;99.90;;;;;;5066232;28;20225;-75
2023/12/31 11:23:02;;;;;;;7.75;7.05;;;4.90;99.90;;;;;;5062161;28;20241;-74
2023/12/31 11:25:32;;;;;;;7.95;7.35;;;4.80;99.90;;;;;;5067498;28;20602;-76
2023/12/31 11:27:59;;;;;;;7.45;6.80;;;4.70;99.90;;;;;;5081824;28;20221;-75
2023/12/31 11:30:46;;;;;;;7.32;6.72;;;4.60;99.90;;;;;;5087161;28;20224;-78
2023/12/31 11:33:16;;;;;;;7.32;6.28;;;4.60;99.90;;;;;;5087396;28;20770;-76
2023/12/31 11:35:44;;;;;;;7.13;6.53;;;4.60;99.90;;;;;;5088372;28;20240;-76
2023/12/31 11:38:12;;;;;;;7.30;6.70;;;4.60;99.90;;;;;;5088960;28;20239;-76
2023/12/31 11:40:40;;;;;;;7.07;6.47;;;4.60;99.90;;;;;;5088591;28;20221;-73
2023/12/31 11:43:12;;;;;;;7.18;6.47;;;4.70;99.90;;;;;;5090088;28;20228;-73
2023/12/31 11:45:43;;;;;;;7.90;7.20;;;4.70;99.90;;;;;;5087875;28;20276;-73
2023/12/31 11:48:26;;;;;;;8.05;7.35;;;4.70;99.90;;;;;;5087528;28;20257;-78
2023/12/31 11:50:53;;;;;;;8.32;7.63;;;4.70;99.90;;;;;;5087923;28;20208;-77
2023/12/31 11:53:23;;;;;;;9.10;8.30;;;4.70;99.90;;;;;;5089469;28;20652;-78
2023/12/31 11:55:54;;;;;;;8.60;7.80;;;4.60;99.90;;;;;;5093477;28;20241;-75
2023/12/31 11:58:21;;;;;;;10.18;9.15;;;4.60;99.90;;;;;;5092832;28;20313;-74
2023/12/31 12:00:49;;;;;;;10.05;9.13;;;4.60;99.90;;;;;;5090589;28;20229;-74
2023/12/31 12:03:18;;;;;;;9.90;8.98;;;4.70;99.90;;;;;;5087823;28;20230;-74
2023/12/31 12:05:48;;;;;;;9.35;8.50;;;4.70;99.90;;;;;;5087236;28;20267;-75
2023/12/31 12:08:16;;;;;;;8.70;7.90;;;4.70;99.90;;;;;;5084949;28;20228;-74
2023/12/31 12:10:43;;;;;;;8.48;7.72;;;4.70;99.90;;;;;;5087988;28;20227;-76
2023/12/31 12:13:11;;;;;;;9.13;8.32;;;4.80;99.90;;;;;;5086359;28;20786;-76
2023/12/31 12:15:39;;;;;;;9.90;9.00;;;4.90;99.90;;;;;;5088212;28;20224;-76
2023/12/31 12:18:19;;;;;;;9.73;8.65;;;4.90;99.90;;;;;;5087671;28;20308;-77
2023/12/31 12:20:48;;;;;;;8.57;7.78;;;5.00;99.90;;;;;;5086386;28;20212;-75
2023/12/31 12:23:18;;;;;;;9.43;8.50;;;5.00;99.90;;;;;;5085160;28;20260;-76
2023/12/31 12:25:45;;;;;;;9.38;8.48;;;5.00;99.90;;;;;;5087165;28;20194;-74
2023/12/31 12:28:14;;;;;;;9.43;8.48;;;4.90;99.90;;;;;;5087116;28;20221;-75
2023/12/31 12:30:42;;;;;;;9.55;8.65;;;4.90;99.90;;;;;;5084884;28;20308;-74
2023/12/31 12:33:11;;;;;;;9.40;8.60;;;4.90;99.90;;;;;;5086175;28;20221;-74
2023/12/31 12:35:39;;;;;;;10.45;9.45;;;4.90;99.90;;;;;;5086959;28;20591;-74
2023/12/31 12:38:08;;;;;;;10.35;9.45;;;4.90;99.90;;;;;;5084229;28;20244;-74
2023/12/31 12:40:34;;;;;;;10.30;9.02;;;4.90;99.90;;;;;;5085915;28;20328;-76
2023/12/31 12:43:02;;;;;;;10.63;9.63;;;4.90;99.90;;;;;;5086717;28;20213;-79
2023/12/31 12:45:30;;;;;;;10.07;9.18;;;4.90;99.90;;;;;;5086655;28;20206;-77
2023/12/31 12:47:59;;;;;;;10.40;9.40;;;5.00;99.90;;;;;;5086833;28;20656;-73
2023/12/31 12:50:26;;;;;;;10.07;9.10;;;5.00;99.90;;;;;;5086047;28;20253;-78
2023/12/31 12:52:54;;;;;;;10.45;9.35;;;5.10;99.90;;;;;;5086940;28;20228;-73
2023/12/31 12:55:22;;;;;;;10.70;9.70;;;5.10;99.90;;;;;;5086077;28;20384;-77
2023/12/31 12:57:49;;;;;;;9.70;8.75;;;5.10;99.90;;;;;;5085427;28;20221;-73
2023/12/31 13:00:17;;;;;;;10.63;9.35;;;5.20;99.90;;;;;;5085896;28;20639;-77